Manea, United Kingdom
Current Conditions -  °F | °C
As of 7:54 PM on Thursday 27 Nov 2014 (Local Time) from EGUN Reporting Station
Haze Haze  
Wind Chill: 50°   Ceiling: 7000
Heat Index: 50°   Visibility: 4mi
Dew Point: 50°   Wind: 8mph
Humidity: 100%   Direction: 140°SE
Pressure: 29.62"   Gusts: NA
Location:  52.48°N, 0.18°E
Report Text: EGUN 271954Z AUTO 14007KT 6000 R29/1400 BR OVC070 10/10 A2962 RMK AO2
Loading
Personal Weather Stations






























Interactive Weather Map New forecast layout! Learn more

10-Day Weather Forecast

Advertisements
Track Severe Weather on mobile